Time;durP1;ratioP1;P1;durP2;ratioP2;P2;SDS_P1;SDS_P2;PMS_P1;PMS_P2;Temp;Humidity;BMP_temperature;BMP_pressure;BME280_temperature;BME280_humidity;BME280_pressure;Samples;Min_cycle;Max_cycle;Signal;HPM_P1;HPM_P2
2024/01/27 00:00:04;;;;;;;;;;;;;;;17.69;55.17;101401.97;7389668;19;1921;-73
2024/01/27 00:02:35;;;;;;;;;;;;;;;17.69;55.12;101388.59;7388303;19;1742;-73
2024/01/27 00:05:03;;;;;;;;;;;;;;;17.70;54.96;101387.63;7390260;19;1548;-73
2024/01/27 00:07:31;;;;;;;;;;;;;;;17.71;55.10;101381.31;7374362;19;1885;-72
2024/01/27 00:10:00;;;;;;;;;;;;;;;17.70;55.07;101375.09;7389584;19;1492;-73
2024/01/27 00:12:29;;;;;;;;;;;;;;;17.70;55.03;101393.81;7390324;19;1559;-73
2024/01/27 00:14:57;;;;;;;;;;;;;;;17.77;54.80;101399.59;7389460;19;1611;-73
2024/01/27 00:17:27;;;;;;;;;;;;;;;17.75;54.97;101396.19;7390164;19;1308;-73
2024/01/27 00:19:58;;;;;;;;;;;;;;;17.79;54.75;101402.16;7386998;19;1500;-73
2024/01/27 00:22:27;;;;;;;;;;;;;;;17.74;54.94;101394.47;7388853;19;1569;-73
2024/01/27 00:24:55;;;;;;;;;;;;;;;17.72;54.96;101407.09;7389220;19;1836;-73
2024/01/27 00:27:24;;;;;;;;;;;;;;;17.71;54.84;101405.41;7387774;19;1857;-73
2024/01/27 00:29:53;;;;;;;;;;;;;;;17.69;54.91;101399.31;7389460;19;1389;-73
2024/01/27 00:32:21;;;;;;;;;;;;;;;17.68;55.14;101397.59;7387548;19;1604;-73
2024/01/27 00:34:49;;;;;;;;;;;;;;;17.72;54.87;101396.38;7387796;19;1485;-73
2024/01/27 00:37:20;;;;;;;;;;;;;;;17.67;55.17;101390.53;7387545;19;1527;-73
2024/01/27 00:39:49;;;;;;;;;;;;;;;17.70;55.14;101385.78;7387376;19;1442;-73
2024/01/27 00:42:18;;;;;;;;;;;;;;;17.73;55.03;101366.00;7388921;19;1260;-73
2024/01/27 00:44:47;;;;;;;;;;;;;;;17.70;54.90;101353.69;7391742;19;1526;-73
2024/01/27 00:47:15;;;;;;;;;;;;;;;17.70;55.20;101374.25;7395002;19;1989;-73
2024/01/27 00:49:44;;;;;;;;;;;;;;;17.73;54.96;101370.53;7392461;19;1596;-73
2024/01/27 00:52:12;;;;;;;;;;;;;;;17.69;54.95;101361.84;7393965;19;1603;-73
2024/01/27 00:54:43;;;;;;;;;;;;;;;17.74;55.08;101359.69;7395880;19;1368;-73
2024/01/27 00:57:11;;;;;;;;;;;;;;;17.73;54.96;101365.16;7396584;19;1152;-73
2024/01/27 00:59:40;;;;;;;;;;;;;;;17.70;55.12;101361.72;7393759;19;1507;-74
2024/01/27 01:02:09;;;;;;;;;;;;;;;17.66;55.15;101348.69;7391801;19;2456;-73
2024/01/27 01:04:37;;;;;;;;;;;;;;;17.69;55.07;101353.84;7395562;19;1597;-73
2024/01/27 01:07:03;;;;;;;;;;;;;;;17.67;55.01;101340.56;7379496;19;1880;-73
2024/01/27 01:09:31;;;;;;;;;;;;;;;17.68;54.98;101331.56;7392251;19;1416;-73
2024/01/27 01:12:02;;;;;;;;;;;;;;;17.69;54.95;101332.44;7393431;19;1405;-73
2024/01/27 01:14:31;;;;;;;;;;;;;;;17.66;54.90;101311.25;7395719;19;1837;-73
2024/01/27 01:16:59;;;;;;;;;;;;;;;17.67;55.25;101310.31;7395570;19;1835;-73
2024/01/27 01:19:27;;;;;;;;;;;;;;;17.69;55.01;101313.72;7393534;19;1403;-73
2024/01/27 01:21:56;;;;;;;;;;;;;;;17.65;55.18;101305.06;7395722;19;1724;-73
2024/01/27 01:24:24;;;;;;;;;;;;;;;17.66;55.21;101316.59;7394657;19;1627;-73
2024/01/27 01:26:52;;;;;;;;;;;;;;;17.65;55.16;101321.09;7392672;19;1869;-73
2024/01/27 01:29:24;;;;;;;;;;;;;;;17.70;54.99;101318.06;7395586;19;1536;-74
2024/01/27 01:31:52;;;;;;;;;;;;;;;17.82;54.74;101309.13;7393308;19;1418;-73
2024/01/27 01:34:20;;;;;;;;;;;;;;;17.89;54.64;101306.91;7394442;19;1327;-74
2024/01/27 01:36:48;;;;;;;;;;;;;;;17.89;54.81;101313.09;7392129;19;1482;-73
2024/01/27 01:39:17;;;;;;;;;;;;;;;17.88;54.61;101321.25;7393444;19;1206;-74
2024/01/27 01:41:45;;;;;;;;;;;;;;;17.78;54.63;101310.34;7395139;19;1067;-73
2024/01/27 01:44:13;;;;;;;;;;;;;;;17.75;55.05;101318.59;7393473;19;1577;-73
2024/01/27 01:46:44;;;;;;;;;;;;;;;17.72;55.13;101304.59;7391072;19;1854;-73
2024/01/27 01:49:13;;;;;;;;;;;;;;;17.73;55.03;101304.50;7392069;19;1518;-73
2024/01/27 01:51:41;;;;;;;;;;;;;;;17.70;55.02;101302.03;7393021;19;1540;-73
2024/01/27 01:54:10;;;;;;;;;;;;;;;17.70;55.08;101299.34;7393690;19;1732;-73
2024/01/27 01:56:38;;;;;;;;;;;;;;;17.77;55.13;101318.50;7392747;19;1537;-73
2024/01/27 01:59:06;;;;;;;;;;;;;;;17.69;55.17;101313.72;7393239;19;1758;-73
2024/01/27 02:01:35;;;;;;;;;;;;;;;17.68;55.15;101299.47;7388560;19;1505;-73
2024/01/27 02:04:06;;;;;;;;;;;;;;;17.69;55.19;101300.34;7393588;19;1554;-73
2024/01/27 02:06:35;;;;;;;;;;;;;;;17.67;55.10;101295.09;7379753;19;1891;-73
2024/01/27 02:09:05;;;;;;;;;;;;;;;17.72;55.10;101300.09;7393293;19;1924;-74
2024/01/27 02:11:35;;;;;;;;;;;;;;;17.72;54.88;101278.69;7392978;19;1844;-73
2024/01/27 02:14:03;;;;;;;;;;;;;;;17.71;55.12;101295.72;7393324;19;1552;-73
2024/01/27 02:16:31;;;;;;;;;;;;;;;17.74;54.91;101290.13;7389665;19;1429;-73
2024/01/27 02:19:00;;;;;;;;;;;;;;;17.72;54.89;101294.75;7392733;19;1283;-73
2024/01/27 02:21:31;;;;;;;;;;;;;;;17.73;55.02;101299.13;7390331;19;1259;-73
2024/01/27 02:24:00;;;;;;;;;;;;;;;17.69;55.08;101295.00;7389235;19;1256;-73
2024/01/27 02:26:31;;;;;;;;;;;;;;;17.67;55.17;101288.91;7391079;19;1607;-73
2024/01/27 02:28:59;;;;;;;;;;;;;;;17.66;55.18;101258.59;7389286;19;1381;-73
2024/01/27 02:31:28;;;;;;;;;;;;;;;17.66;55.11;101289.84;7391815;19;1406;-73
2024/01/27 02:33:56;;;;;;;;;;;;;;;17.68;55.16;101293.25;7391351;19;1559;-73
2024/01/27 02:36:24;;;;;;;;;;;;;;;17.69;55.08;101278.94;7391914;19;1904;-73
2024/01/27 02:38:53;;;;;;;;;;;;;;;17.42;55.66;101274.66;7392290;19;1332;-73
2024/01/27 02:41:21;;;;;;;;;;;;;;;17.17;56.09;101283.63;7389640;19;1596;-73
2024/01/27 02:43:52;;;;;;;;;;;;;;;17.01;56.45;101278.53;7390908;19;1922;-73
2024/01/27 02:46:21;;;;;;;;;;;;;;;16.80;56.96;101280.88;7392955;19;1622;-73
2024/01/27 02:48:49;;;;;;;;;;;;;;;16.79;57.17;101278.28;7389498;19;1875;-73
2024/01/27 02:51:21;;;;;;;;;;;;;;;17.18;56.15;101257.75;7391185;19;1489;-73
2024/01/27 02:53:49;;;;;;;;;;;;;;;17.45;55.90;101266.41;7390470;19;1380;-73
2024/01/27 02:56:18;;;;;;;;;;;;;;;17.67;55.44;101267.50;7391322;19;1457;-73
2024/01/27 02:58:47;;;;;;;;;;;;;;;17.73;55.17;101256.34;7392333;19;1544;-73
2024/01/27 03:01:18;;;;;;;;;;;;;;;17.65;55.22;101256.91;7389693;19;1139;-73
2024/01/27 03:03:46;;;;;;;;;;;;;;;17.65;55.23;101272.97;7392483;19;1394;-73
2024/01/27 03:06:14;;;;;;;;;;;;;;;17.69;55.29;101273.59;7389434;19;1793;-73
2024/01/27 03:08:43;;;;;;;;;;;;;;;16.96;55.35;101163.13;7374979;19;2624;-73
2024/01/27 03:11:11;;;;;;;;;;;;;;;17.63;55.38;101261.53;7392523;19;1739;-73
2024/01/27 03:13:44;;;;;;;;;;;;;;;17.66;55.25;101257.75;7388783;19;1531;-73
2024/01/27 03:16:13;;;;;;;;;;;;;;;17.72;55.24;101251.94;7388563;19;1488;-74
2024/01/27 03:18:44;;;;;;;;;;;;;;;17.77;55.00;101232.91;7389743;19;1152;-74
2024/01/27 03:21:12;;;;;;;;;;;;;;;17.86;54.87;101227.72;7389322;19;1725;-73
2024/01/27 03:23:41;;;;;;;;;;;;;;;17.83;55.45;101200.31;7389163;19;1586;-73
2024/01/27 03:26:09;;;;;;;;;;;;;;;17.88;55.38;101193.66;7390863;19;1535;-73
2024/01/27 03:28:38;;;;;;;;;;;;;;;17.89;55.49;101184.69;7388994;19;1842;-73
2024/01/27 03:31:07;;;;;;;;;;;;;;;17.89;55.70;101194.53;7390026;19;1543;-73
2024/01/27 03:33:35;;;;;;;;;;;;;;;17.87;55.73;101199.16;7390165;19;1410;-73
2024/01/27 03:36:11;;;;;;;;;;;;;;;17.91;55.69;101214.00;7390078;19;1012;-73
2024/01/27 03:38:40;;;;;;;;;;;;;;;17.87;55.81;101213.38;7390939;19;1143;-74
2024/01/27 03:41:08;;;;;;;;;;;;;;;17.86;55.75;101224.19;7388754;19;1482;-73
2024/01/27 03:43:37;;;;;;;;;;;;;;;17.88;55.86;101222.25;7388310;19;1521;-73
2024/01/27 03:46:05;;;;;;;;;;;;;;;17.92;55.78;101236.25;7387789;19;1410;-73
2024/01/27 03:48:35;;;;;;;;;;;;;;;17.89;55.84;101262.28;7385537;19;1837;-73
2024/01/27 03:51:05;;;;;;;;;;;;;;;17.88;55.93;101223.09;7387120;19;1323;-73
2024/01/27 03:53:34;;;;;;;;;;;;;;;17.91;56.05;101213.16;7388405;19;1751;-73
2024/01/27 03:56:04;;;;;;;;;;;;;;;17.85;56.08;101206.44;7389828;19;1769;-73
2024/01/27 03:58:32;;;;;;;;;;;;;;;17.86;55.97;101190.25;7390643;19;1761;-73
2024/01/27 04:01:00;;;;;;;;;;;;;;;18.02;55.63;101189.06;7391630;19;1210;-74
2024/01/27 04:03:29;;;;;;;;;;;;;;;18.20;55.14;101194.81;7390510;19;1793;-73
2024/01/27 04:05:57;;;;;;;;;;;;;;;18.25;55.20;101185.47;7391005;19;1524;-73
2024/01/27 04:08:28;;;;;;;;;;;;;;;18.37;54.83;101202.38;7375943;19;1845;-73
2024/01/27 04:10:57;;;;;;;;;;;;;;;18.44;54.83;101178.66;7390226;19;1492;-72
2024/01/27 04:13:25;;;;;;;;;;;;;;;18.52;54.46;101197.63;7390426;19;1676;-74
2024/01/27 04:15:53;;;;;;;;;;;;;;;18.52;54.42;101176.22;7389144;19;1249;-73
2024/01/27 04:18:22;;;;;;;;;;;;;;;18.59;54.26;101165.88;7394179;19;1271;-73
2024/01/27 04:20:50;;;;;;;;;;;;;;;18.58;54.36;101154.31;7398470;19;1410;-73
2024/01/27 04:23:18;;;;;;;;;;;;;;;18.48;54.66;101153.31;7397454;19;1641;-74
2024/01/27 04:25:49;;;;;;;;;;;;;;;18.45;54.47;101137.53;7396191;19;1587;-73
2024/01/27 04:28:17;;;;;;;;;;;;;;;18.47;54.74;101170.38;7395363;19;1847;-74
2024/01/27 04:30:46;;;;;;;;;;;;;;;18.44;54.57;101152.75;7396945;19;1077;-74
2024/01/27 04:33:14;;;;;;;;;;;;;;;18.45;54.78;101158.94;7393453;19;1845;-74
2024/01/27 04:35:43;;;;;;;;;;;;;;;18.33;54.77;101162.59;7393698;19;1766;-74
2024/01/27 04:38:11;;;;;;;;;;;;;;;18.23;55.13;101157.13;7395586;19;1508;-73
2024/01/27 04:40:40;;;;;;;;;;;;;;;18.25;55.06;101142.63;7396897;19;1765;-74
2024/01/27 04:43:10;;;;;;;;;;;;;;;18.34;54.79;101156.25;7392602;19;1836;-74
2024/01/27 04:45:39;;;;;;;;;;;;;;;18.36;54.73;101138.25;7393942;19;1335;-74
2024/01/27 04:48:08;;;;;;;;;;;;;;;18.52;54.47;101159.28;7395371;19;1853;-74
2024/01/27 04:50:36;;;;;;;;;;;;;;;18.64;54.20;101153.81;7395524;19;1453;-74
2024/01/27 04:53:05;;;;;;;;;;;;;;;18.70;54.23;101157.81;7392370;19;1497;-74
2024/01/27 04:55:33;;;;;;;;;;;;;;;18.64;54.19;101153.81;7395788;19;1642;-74
2024/01/27 04:58:01;;;;;;;;;;;;;;;18.59;54.32;101149.81;7396095;19;1097;-74
2024/01/27 05:00:32;;;;;;;;;;;;;;;18.56;54.62;101155.41;7395422;19;1576;-74
2024/01/27 05:03:04;;;;;;;;;;;;;;;18.57;54.40;101155.28;7394549;19;1159;-74
2024/01/27 05:05:32;;;;;;;;;;;;;;;18.43;54.64;101160.91;7393777;19;1224;-74
2024/01/27 05:08:00;;;;;;;;;;;;;;;18.36;54.82;101139.09;7380377;19;1859;-73
2024/01/27 05:10:29;;;;;;;;;;;;;;;18.31;55.16;101160.03;7394308;19;1539;-74
2024/01/27 05:12:57;;;;;;;;;;;;;;;18.39;54.65;101154.94;7394525;19;1713;-74
2024/01/27 05:15:25;;;;;;;;;;;;;;;18.55;54.35;101143.84;7395238;19;1453;-74
2024/01/27 05:17:56;;;;;;;;;;;;;;;18.58;54.34;101150.75;7394663;19;1457;-74
2024/01/27 05:20:24;;;;;;;;;;;;;;;18.64;54.26;101153.81;7395687;19;1554;-74
2024/01/27 05:22:53;;;;;;;;;;;;;;;18.54;54.52;101131.41;7392414;19;1377;-75
2024/01/27 05:25:21;;;;;;;;;;;;;;;18.52;54.53;101148.59;7396306;19;1033;-74
2024/01/27 05:27:49;;;;;;;;;;;;;;;18.57;54.49;101141.03;7395126;19;1825;-74
2024/01/27 05:30:18;;;;;;;;;;;;;;;18.58;54.47;101137.38;7393403;19;1925;-74
2024/01/27 05:32:46;;;;;;;;;;;;;;;18.46;54.61;101144.56;7394020;19;1853;-74
2024/01/27 05:35:17;;;;;;;;;;;;;;;18.44;54.67;101146.50;7394034;19;1846;-74
2024/01/27 05:37:46;;;;;;;;;;;;;;;18.36;54.82;101144.44;7395767;19;1788;-74
2024/01/27 05:40:14;;;;;;;;;;;;;;;18.39;54.95;101132.66;7393851;19;1584;-74
2024/01/27 05:42:44;;;;;;;;;;;;;;;18.57;54.55;101147.25;7394866;19;1408;-74
2024/01/27 05:45:13;;;;;;;;;;;;;;;18.72;54.26;101146.97;7395303;19;1649;-74
2024/01/27 05:47:41;;;;;;;;;;;;;;;18.76;54.13;101143.06;7395852;19;1856;-74
2024/01/27 05:50:10;;;;;;;;;;;;;;;18.69;54.29;101140.03;7395439;19;1245;-74
2024/01/27 05:52:41;;;;;;;;;;;;;;;18.64;54.50;101143.09;7400341;19;1093;-74
2024/01/27 05:55:12;;;;;;;;;;;;;;;18.63;54.44;101130.69;7400860;19;1852;-74
2024/01/27 05:57:41;;;;;;;;;;;;;;;18.61;54.42;101134.47;7396257;19;1544;-74
2024/01/27 06:00:10;;;;;;;;;;;;;;;18.48;54.69;101131.91;7402844;19;1513;-74
2024/01/27 06:02:38;;;;;;;;;;;;;;;18.40;54.96;101148.63;7400163;19;1287;-74
2024/01/27 06:05:08;;;;;;;;;;;;;;;18.37;55.11;101151.53;7402779;19;1029;-74
2024/01/27 06:07:37;;;;;;;;;;;;;;;18.54;54.61;101147.47;7392909;19;1353;-74
2024/01/27 06:10:09;;;;;;;;;;;;;;;18.65;54.52;101147.47;7398689;19;1839;-74
2024/01/27 06:12:38;;;;;;;;;;;;;;;18.63;54.65;101143.22;7404271;19;1014;-74
2024/01/27 06:15:13;;;;;;;;;;;;;;;18.77;54.60;101152.81;7401793;19;1616;-73
2024/01/27 06:17:53;;;;;;;;;;;;;;;18.73;54.40;101151.38;7403754;19;1686;-74
2024/01/27 06:20:25;;;;;;;;;;;;;;;18.69;54.59;101140.03;7401336;19;1462;-74
2024/01/27 06:22:53;;;;;;;;;;;;;;;18.58;55.11;101148.09;7403928;19;1518;-75
2024/01/27 06:25:25;;;;;;;;;;;;;;;18.52;55.13;101152.09;7405333;19;1304;-74
2024/01/27 06:28:01;;;;;;;;;;;;;;;18.53;55.06;101161.84;7404263;19;1538;-74
2024/01/27 06:30:29;;;;;;;;;;;;;;;18.52;55.06;101170.84;7400759;19;1402;-74
2024/01/27 06:32:57;;;;;;;;;;;;;;;18.59;54.89;101156.00;7401333;19;1502;-74
2024/01/27 06:35:33;;;;;;;;;;;;;;;18.55;54.86;101153.72;7416057;19;1271;-74
2024/01/27 06:38:01;;;;;;;;;;;;;;;18.48;55.14;101153.31;7409959;19;1885;-74
2024/01/27 06:40:32;;;;;;;;;;;;;;;18.38;55.34;101155.03;7401769;19;1299;-74
2024/01/27 06:43:01;;;;;;;;;;;;;;;18.49;55.01;101136.31;7397439;19;1447;-75
2024/01/27 06:45:29;;;;;;;;;;;;;;;18.57;54.75;101157.97;7399615;19;1603;-74
2024/01/27 06:47:58;;;;;;;;;;;;;;;18.60;54.94;101155.03;7397701;19;1535;-74
2024/01/27 06:50:27;;;;;;;;;;;;;;;18.71;54.85;101148.81;7397027;19;1861;-74
2024/01/27 06:52:55;;;;;;;;;;;;;;;18.81;54.70;101143.59;7399224;19;1091;-74
2024/01/27 06:55:23;;;;;;;;;;;;;;;18.80;54.56;101141.88;7398867;19;1802;-75
2024/01/27 06:57:54;;;;;;;;;;;;;;;18.61;54.80;101142.50;7398143;19;1418;-74
2024/01/27 07:00:23;;;;;;;;;;;;;;;18.54;54.80;101136.75;7397502;19;1470;-74
2024/01/27 07:02:51;;;;;;;;;;;;;;;18.50;55.18;101132.63;7396210;19;1419;-78
2024/01/27 07:05:21;;;;;;;;;;;;;;;18.56;54.95;101145.56;7401461;19;1274;-78
2024/01/27 07:07:49;;;;;;;;;;;;;;;18.55;55.14;101133.13;7392325;19;1500;-77
2024/01/27 07:10:18;;;;;;;;;;;;;;;18.55;55.00;101145.66;7396393;19;1852;-78
2024/01/27 07:12:46;;;;;;;;;;;;;;;18.55;55.05;101125.09;7395758;19;1180;-77
2024/01/27 07:15:17;;;;;;;;;;;;;;;18.55;55.30;101135.81;7395924;19;1566;-78
2024/01/27 07:17:46;;;;;;;;;;;;;;;18.63;54.90;101125.31;7397027;19;1461;-78
2024/01/27 07:20:14;;;;;;;;;;;;;;;18.65;54.92;101128.72;7396187;19;1562;-77
2024/01/27 07:22:43;;;;;;;;;;;;;;;18.61;55.25;101121.91;7394758;19;1164;-77
2024/01/27 07:25:11;;;;;;;;;;;;;;;18.58;55.36;101127.53;7393298;19;1427;-79
2024/01/27 07:27:40;;;;;;;;;;;;;;;18.62;55.34;101145.06;7393632;19;1493;-79
2024/01/27 07:30:09;;;;;;;;;;;;;;;18.66;55.14;101135.81;7389828;19;1842;-77
2024/01/27 07:32:40;;;;;;;;;;;;;;;18.87;55.24;101143.09;7390557;19;1512;-77
2024/01/27 07:35:09;;;;;;;;;;;;;;;18.95;54.92;101143.31;7390480;19;1488;-78
2024/01/27 07:37:37;;;;;;;;;;;;;;;19.02;54.67;101136.47;7392527;19;1105;-77
2024/01/27 07:40:06;;;;;;;;;;;;;;;19.11;54.33;101152.78;7391363;19;1397;-77
2024/01/27 07:42:34;;;;;;;;;;;;;;;18.98;54.66;101148.44;7388401;19;1477;-77
2024/01/27 07:45:03;;;;;;;;;;;;;;;18.96;54.63;101146.81;7391484;19;1211;-77
2024/01/27 07:47:31;;;;;;;;;;;;;;;18.93;54.74;101142.59;7389555;19;1502;-77
2024/01/27 07:50:03;;;;;;;;;;;;;;;18.92;54.87;101151.63;7389957;19;1857;-78
2024/01/27 07:52:32;;;;;;;;;;;;;;;18.79;54.74;101153.56;7391079;19;1275;-77
2024/01/27 07:55:00;;;;;;;;;;;;;;;18.73;54.75;101146.84;7389473;19;1261;-78
2024/01/27 07:57:28;;;;;;;;;;;;;;;18.85;54.35;101161.97;7386807;19;1461;-78
2024/01/27 07:59:57;;;;;;;;;;;;;;;18.82;54.72;101150.63;7389568;19;1409;-77
2024/01/27 08:02:26;;;;;;;;;;;;;;;18.95;54.32;101148.66;7389552;19;1786;-77
2024/01/27 08:04:57;;;;;;;;;;;;;;;18.86;54.41;101155.66;7389855;19;1268;-78
2024/01/27 08:07:28;;;;;;;;;;;;;;;18.86;54.42;101146.72;7385638;19;1377;-75
2024/01/27 08:09:57;;;;;;;;;;;;;;;18.89;54.64;101151.84;7376514;19;1847;-75
2024/01/27 08:12:25;;;;;;;;;;;;;;;18.98;54.81;101158.28;7388475;19;1405;-75
2024/01/27 08:14:53;;;;;;;;;;;;;;;18.98;55.21;101172.56;7389254;19;1580;-75
2024/01/27 08:17:22;;;;;;;;;;;;;;;19.07;55.43;101166.41;7388481;19;1487;-75
2024/01/27 08:19:51;;;;;;;;;;;;;;;19.02;56.10;101162.41;7388050;19;1771;-76
2024/01/27 08:22:19;;;;;;;;;;;;;;;19.00;56.37;101162.56;7389289;19;1567;-75
2024/01/27 08:24:50;;;;;;;;;;;;;;;19.03;56.47;101158.75;7388617;19;1512;-76
2024/01/27 08:27:18;;;;;;;;;;;;;;;18.98;56.72;101167.19;7388278;19;1637;-75
2024/01/27 08:29:47;;;;;;;;;;;;;;;18.99;57.01;101168.03;7389744;19;1854;-75
2024/01/27 08:32:15;;;;;;;;;;;;;;;18.97;57.26;101168.16;7390056;19;1852;-76
2024/01/27 08:34:43;;;;;;;;;;;;;;;18.72;58.34;101171.97;7390651;19;1371;-75
2024/01/27 08:37:17;;;;;;;;;;;;;;;18.72;59.01;101181.81;7390803;19;1662;-75
2024/01/27 08:39:45;;;;;;;;;;;;;;;18.95;59.30;101167.44;7389555;19;1579;-75
2024/01/27 08:42:16;;;;;;;;;;;;;;;19.09;60.22;101168.97;7390058;19;1666;-76
2024/01/27 08:44:45;;;;;;;;;;;;;;;19.20;61.24;101176.13;7391132;19;1125;-74
2024/01/27 08:47:13;;;;;;;;;;;;;;;18.99;61.56;101166.19;7387759;19;1584;-75
2024/01/27 08:49:41;;;;;;;;;;;;;;;18.91;61.86;101176.69;7388234;19;1855;-75
2024/01/27 08:52:10;;;;;;;;;;;;;;;18.87;61.65;101170.72;7391686;19;1603;-75
2024/01/27 08:54:38;;;;;;;;;;;;;;;18.76;61.92;101172.53;7388938;19;1551;-75
2024/01/27 08:57:06;;;;;;;;;;;;;;;18.61;62.27;101175.47;7388894;19;1749;-75
2024/01/27 08:59:37;;;;;;;;;;;;;;;18.58;62.38;101175.75;7387651;19;1681;-76
2024/01/27 09:02:06;;;;;;;;;;;;;;;18.65;61.98;101178.78;7389888;19;1605;-76
2024/01/27 09:04:34;;;;;;;;;;;;;;;18.64;61.98;101169.91;7391868;19;1899;-76
2024/01/27 09:07:02;;;;;;;;;;;;;;;18.60;61.58;101178.28;7397518;19;1347;-75
2024/01/27 09:09:28;;;;;;;;;;;;;;;18.16;57.80;101174.63;7380261;19;2360;-75
2024/01/27 09:11:57;;;;;;;;;;;;;;;17.79;57.09;101183.66;7396322;19;1578;-75
2024/01/27 09:14:25;;;;;;;;;;;;;;;17.49;56.53;101193.03;7394982;19;1911;-75
2024/01/27 09:16:56;;;;;;;;;;;;;;;17.35;57.38;101193.22;7392740;19;1812;-75
2024/01/27 09:19:24;;;;;;;;;;;;;;;17.64;58.50;101195.50;7398691;19;1590;-76
2024/01/27 09:21:53;;;;;;;;;;;;;;;17.77;57.02;101195.44;7393361;19;1872;-75
2024/01/27 09:24:21;;;;;;;;;;;;;;;17.97;56.54;101180.56;7395476;19;1466;-76
2024/01/27 09:26:49;;;;;;;;;;;;;;;18.24;55.86;101183.78;7396734;19;1457;-75
2024/01/27 09:29:18;;;;;;;;;;;;;;;18.21;56.23;101177.81;7392755;19;1861;-76
2024/01/27 09:31:46;;;;;;;;;;;;;;;18.21;56.48;101196.53;7391785;19;1590;-75
2024/01/27 09:34:17;;;;;;;;;;;;;;;18.21;56.78;101189.34;7393543;19;1300;-74
2024/01/27 09:36:45;;;;;;;;;;;;;;;18.21;56.91;101178.66;7391962;19;1414;-74
2024/01/27 09:39:13;;;;;;;;;;;;;;;18.18;57.34;101191.41;7392315;19;1232;-75
2024/01/27 09:41:43;;;;;;;;;;;;;;;18.19;57.20;101172.56;7392514;19;1453;-74
2024/01/27 09:44:14;;;;;;;;;;;;;;;18.28;57.00;101187.03;7392409;19;1561;-76
2024/01/27 09:46:43;;;;;;;;;;;;;;;18.42;56.89;101193.97;7396094;19;1733;-75
2024/01/27 09:49:13;;;;;;;;;;;;;;;18.38;56.86;101197.88;7396158;19;1849;-75
2024/01/27 09:53:38;;;;;;;;;;;;;;;18.19;57.43;101202.00;7388703;19;1626;-61
2024/01/27 09:56:07;;;;;;;;;;;;;;;17.89;58.31;101203.41;7427916;19;1457;-66
2024/01/27 09:58:35;;;;;;;;;;;;;;;17.77;58.41;101195.44;7422294;19;1548;-66
2024/01/27 10:01:03;;;;;;;;;;;;;;;17.64;58.60;101209.72;7422552;19;1452;-61
2024/01/27 10:03:32;;;;;;;;;;;;;;;17.72;58.43;101214.50;7421618;19;1442;-61
2024/01/27 10:06:00;;;;;;;;;;;;;;;18.22;56.97;101207.13;7421896;19;1386;-64
2024/01/27 10:08:28;;;;;;;;;;;;;;;18.57;56.20;101216.88;7422876;19;1706;-68
2024/01/27 10:10:59;;;;;;;;;;;;;;;18.80;55.60;101195.47;7423000;19;1601;-63
2024/01/27 10:13:28;;;;;;;;;;;;;;;18.84;55.55;101191.56;7419571;19;1846;-62
2024/01/27 10:16:04;;;;;;;;;;;;;;;18.98;55.73;101204.72;7422320;19;1495;-65
2024/01/27 10:18:32;;;;;;;;;;;;;;;19.03;55.03;101210.53;7422436;19;1577;-60
2024/01/27 10:21:01;;;;;;;;;;;;;;;19.10;55.28;101215.38;7419419;19;1403;-64
2024/01/27 10:23:29;;;;;;;;;;;;;;;19.07;55.16;101205.78;7418123;19;1652;-66
2024/01/27 10:26:00;;;;;;;;;;;;;;;18.92;55.37;101210.56;7417593;19;1251;-60
2024/01/27 10:28:28;;;;;;;;;;;;;;;18.94;55.47;101219.34;7418826;19;1359;-67
2024/01/27 10:30:57;;;;;;;;;;;;;;;18.67;55.90;101225.88;7418963;19;1395;-60
2024/01/27 10:33:29;;;;;;;;;;;;;;;18.80;53.67;101223.13;7418342;19;1855;-65
2024/01/27 10:36:01;;;;;;;;;;;;;;;18.90;53.82;101217.88;7419907;19;1280;-64
2024/01/27 10:38:36;;;;;;;;;;;;;;;18.92;53.97;101205.22;7419851;19;1427;-61
2024/01/27 10:41:10;;;;;;;;;;;;;;;19.04;54.04;101222.97;7419288;19;1202;-61
2024/01/27 10:43:39;;;;;;;;;;;;;;;19.04;54.18;101216.78;7418037;19;1346;-61
2024/01/27 10:46:08;;;;;;;;;;;;;;;19.10;54.10;101234.16;7418545;19;1221;-61
2024/01/27 10:48:37;;;;;;;;;;;;;;;19.10;54.09;101228.78;7420028;19;1778;-61
2024/01/27 10:51:10;;;;;;;;;;;;;;;19.19;54.15;101230.72;7419151;19;1067;-61
2024/01/27 10:53:39;;;;;;;;;;;;;;;19.11;54.52;101212.59;7415323;19;1881;-61
2024/01/27 10:56:10;;;;;;;;;;;;;;;19.13;54.48;101202.59;7423983;19;1773;-61
2024/01/27 10:58:40;;;;;;;;;;;;;;;19.20;54.38;101217.22;7424229;19;1522;-61
2024/01/27 11:01:11;;;;;;;;;;;;;;;19.13;54.56;101213.31;7416522;19;1496;-61
2024/01/27 11:03:41;;;;;;;;;;;;;;;19.13;54.57;101218.69;7402605;19;1271;-61
2024/01/27 11:06:09;;;;;;;;;;;;;;;19.18;54.41;101202.19;7390065;19;1733;-66
2024/01/27 11:08:38;;;;;;;;;;;;;;;19.17;54.44;101216.59;7388885;19;1208;-66
2024/01/27 11:11:07;;;;;;;;;;;;;;;19.12;54.48;101225.03;7388932;19;1384;-66
2024/01/27 11:13:39;;;;;;;;;;;;;;;19.14;54.59;101219.53;7387613;19;1869;-66
2024/01/27 11:16:08;;;;;;;;;;;;;;;19.10;54.80;101234.16;7391880;19;1805;-61
2024/01/27 11:18:36;;;;;;;;;;;;;;;19.17;54.39;101224.66;7392833;19;1029;-66
2024/01/27 11:21:06;;;;;;;;;;;;;;;19.17;54.68;101227.31;7392684;19;1752;-66
2024/01/27 11:23:35;;;;;;;;;;;;;;;19.12;54.99;101234.88;7388209;19;1713;-66
2024/01/27 11:26:07;;;;;;;;;;;;;;;19.11;54.85;101235.88;7391927;19;1406;-66
2024/01/27 11:28:40;;;;;;;;;;;;;;;19.11;54.78;101246.59;7390405;19;1465;-66
2024/01/27 11:31:09;;;;;;;;;;;;;;;19.13;54.77;101250.84;7391643;19;1692;-67
2024/01/27 11:33:43;;;;;;;;;;;;;;;19.10;54.64;101243.06;7388398;19;1852;-67
2024/01/27 11:36:20;;;;;;;;;;;;;;;19.16;54.83;101255.09;7390600;19;1759;-67
2024/01/27 11:38:48;;;;;;;;;;;;;;;19.17;54.63;101246.09;7389794;19;1160;-66
2024/01/27 11:41:25;;;;;;;;;;;;;;;19.16;54.75;101247.06;7390589;19;967;-66
2024/01/27 11:43:57;;;;;;;;;;;;;;;19.26;54.40;101261.44;7389179;19;1802;-66
2024/01/27 11:46:25;;;;;;;;;;;;;;;19.25;54.46;101259.72;7390383;19;1648;-67
2024/01/27 11:48:54;;;;;;;;;;;;;;;19.22;54.53;101260.00;7390033;19;1198;-66
2024/01/27 11:51:23;;;;;;;;;;;;;;;19.27;54.59;101272.03;7389992;19;978;-66
2024/01/27 11:53:51;;;;;;;;;;;;;;;19.18;54.75;101272.78;7387395;19;1818;-67
2024/01/27 11:56:21;;;;;;;;;;;;;;;19.22;54.76;101276.06;7390460;19;1796;-61
2024/01/27 11:58:50;;;;;;;;;;;;;;;19.25;54.55;101281.16;7389494;19;1337;-61
2024/01/27 12:01:21;;;;;;;;;;;;;;;19.14;54.95;101268.66;7389362;19;1346;-61
2024/01/27 12:03:49;;;;;;;;;;;;;;;19.27;54.84;101285.44;7389085;19;1537;-61
2024/01/27 12:06:17;;;;;;;;;;;;;;;19.16;54.80;101292.63;7389349;19;1766;-61
2024/01/27 12:08:47;;;;;;;;;;;;;;;19.25;54.67;101281.16;7389907;19;1254;-61
2024/01/27 12:11:15;;;;;;;;;;;;;;;19.23;54.53;101278.59;7393765;19;1710;-62
2024/01/27 12:13:44;;;;;;;;;;;;;;;19.26;54.78;101293.63;7389676;19;1842;-61
2024/01/27 12:16:12;;;;;;;;;;;;;;;19.22;54.63;101292.16;7388286;19;1282;-66
2024/01/27 12:18:43;;;;;;;;;;;;;;;19.23;54.78;101288.50;7390550;19;983;-61
2024/01/27 12:21:12;;;;;;;;;;;;;;;19.26;54.59;101291.78;7390497;19;1035;-61
2024/01/27 12:23:50;;;;;;;;;;;;;;;19.27;54.49;101293.47;7388885;19;1820;-61
2024/01/27 12:26:19;;;;;;;;;;;;;;;19.27;54.53;101288.09;7386986;19;1781;-61
2024/01/27 12:28:48;;;;;;;;;;;;;;;19.21;54.64;101296.66;7386085;19;1505;-61
2024/01/27 12:31:17;;;;;;;;;;;;;;;19.25;54.71;101298.09;7387354;19;1669;-61
2024/01/27 12:33:56;;;;;;;;;;;;;;;19.20;54.62;101316.41;7387600;19;1851;-61
2024/01/27 12:36:24;;;;;;;;;;;;;;;19.15;54.73;101318.59;7388362;19;1083;-61
2024/01/27 12:38:57;;;;;;;;;;;;;;;19.16;54.71;101303.34;7387973;19;1724;-61
2024/01/27 12:41:25;;;;;;;;;;;;;;;19.21;54.84;101318.09;7387939;19;1235;-66
2024/01/27 12:43:53;;;;;;;;;;;;;;;19.25;54.65;101324.06;7387850;19;1759;-66
2024/01/27 12:46:22;;;;;;;;;;;;;;;19.24;54.52;101327.75;7389069;19;1551;-66
2024/01/27 12:48:50;;;;;;;;;;;;;;;19.24;54.50;101322.38;7388626;19;1771;-67
2024/01/27 12:51:21;;;;;;;;;;;;;;;19.27;54.53;101333.69;7387996;19;1094;-66
2024/01/27 12:53:49;;;;;;;;;;;;;;;19.28;54.46;101331.88;7384966;19;1847;-61
2024/01/27 12:56:18;;;;;;;;;;;;;;;19.31;54.43;101336.97;7388206;19;1078;-61
2024/01/27 12:58:43;;;;;;;;;;;;;;;19.35;54.50;101349.16;7387821;19;1206;-61